sensor_id;sensor_type;location;lat;lon;timestamp;pressure;altitude;pressure_sealevel;temperature;humidity
47104;BME280;32853;52.164;5.400;2023-05-02T00:01:15;101940.06;;;13.90;100.00
47104;BME280;32853;52.164;5.400;2023-05-02T00:03:40;101940.28;;;13.84;100.00
47104;BME280;32853;52.164;5.400;2023-05-02T00:06:06;101912.09;;;13.64;100.00
47104;BME280;32853;52.164;5.400;2023-05-02T00:08:48;101939.94;;;13.93;100.00
47104;BME280;32853;52.164;5.400;2023-05-02T00:11:15;101941.72;;;13.93;100.00
47104;BME280;32853;52.164;5.400;2023-05-02T00:13:54;101946.78;;;13.99;100.00
47104;BME280;32853;52.164;5.400;2023-05-02T00:16:20;101889.84;;;13.73;100.00
47104;BME280;32853;52.164;5.400;2023-05-02T00:18:51;101934.56;;;13.96;100.00
47104;BME280;32853;52.164;5.400;2023-05-02T00:21:22;101941.19;;;13.83;100.00
47104;BME280;32853;52.164;5.400;2023-05-02T00:23:50;101944.50;;;13.65;100.00
47104;BME280;32853;52.164;5.400;2023-05-02T00:26:15;101945.78;;;13.78;100.00
47104;BME280;32853;52.164;5.400;2023-05-02T00:28:40;101953.84;;;13.72;100.00
47104;BME280;32853;52.164;5.400;2023-05-02T00:31:07;101944.25;;;13.71;100.00
47104;BME280;32853;52.164;5.400;2023-05-02T00:33:32;101961.38;;;13.58;100.00
47104;BME280;32853;52.164;5.400;2023-05-02T00:35:57;101936.53;;;13.42;100.00
47104;BME280;32853;52.164;5.400;2023-05-02T00:38:34;101916.31;;;13.44;100.00
47104;BME280;32853;52.164;5.400;2023-05-02T00:40:59;101956.66;;;13.68;100.00
47104;BME280;32853;52.164;5.400;2023-05-02T00:43:29;101953.97;;;13.69;100.00
47104;BME280;32853;52.164;5.400;2023-05-02T00:45:55;101941.69;;;13.70;100.00
47104;BME280;32853;52.164;5.400;2023-05-02T00:48:25;101942.13;;;13.57;100.00
47104;BME280;32853;52.164;5.400;2023-05-02T00:50:52;101971.81;;;13.34;100.00
47104;BME280;32853;52.164;5.400;2023-05-02T00:53:18;101923.22;;;13.21;100.00
47104;BME280;32853;52.164;5.400;2023-05-02T00:55:45;101956.72;;;13.66;100.00
47104;BME280;32853;52.164;5.400;2023-05-02T00:58:17;101969.56;;;13.74;100.00
47104;BME280;32853;52.164;5.400;2023-05-02T01:01:09;101935.38;;;13.24;100.00
47104;BME280;32853;52.164;5.400;2023-05-02T01:14:58;101985.97;;;13.30;100.00
47104;BME280;32853;52.164;5.400;2023-05-02T01:17:29;101979.53;;;13.39;100.00
47104;BME280;32853;52.164;5.400;2023-05-02T01:19:59;101947.97;;;12.86;100.00
47104;BME280;32853;52.164;5.400;2023-05-02T01:22:29;101984.56;;;13.19;100.00
47104;BME280;32853;52.164;5.400;2023-05-02T01:25:32;101993.47;;;12.87;100.00
47104;BME280;32853;52.164;5.400;2023-05-02T01:28:09;101988.75;;;12.68;100.00
47104;BME280;32853;52.164;5.400;2023-05-02T01:30:41;101938.53;;;12.51;100.00
47104;BME280;32853;52.164;5.400;2023-05-02T01:33:14;101988.06;;;12.91;100.00
47104;BME280;32853;52.164;5.400;2023-05-02T01:35:44;101964.94;;;13.02;100.00
47104;BME280;32853;52.164;5.400;2023-05-02T01:38:13;101941.72;;;12.90;100.00
47104;BME280;32853;52.164;5.400;2023-05-02T01:40:42;102006.78;;;13.08;100.00
47104;BME280;32853;52.164;5.400;2023-05-02T01:43:11;102009.84;;;13.23;100.00
47104;BME280;32853;52.164;5.400;2023-05-02T01:45:40;102002.97;;;13.17;100.00
47104;BME280;32853;52.164;5.400;2023-05-02T01:48:08;102018.44;;;13.00;100.00
47104;BME280;32853;52.164;5.400;2023-05-02T01:50:35;102025.31;;;12.74;100.00
47104;BME280;32853;52.164;5.400;2023-05-02T01:53:06;102031.28;;;12.79;100.00
47104;BME280;32853;52.164;5.400;2023-05-02T01:55:34;102036.06;;;12.67;100.00
47104;BME280;32853;52.164;5.400;2023-05-02T01:58:01;102026.19;;;12.75;100.00
47104;BME280;32853;52.164;5.400;2023-05-02T02:00:28;102003.44;;;12.46;100.00
47104;BME280;32853;52.164;5.400;2023-05-02T02:02:54;102019.50;;;12.63;100.00
47104;BME280;32853;52.164;5.400;2023-05-02T02:05:21;101968.63;;;12.39;100.00
47104;BME280;32853;52.164;5.400;2023-05-02T02:07:47;102036.72;;;12.73;100.00
47104;BME280;32853;52.164;5.400;2023-05-02T02:10:12;102014.63;;;12.53;100.00
47104;BME280;32853;52.164;5.400;2023-05-02T02:12:59;102025.19;;;12.79;100.00
47104;BME280;32853;52.164;5.400;2023-05-02T02:15:27;102007.88;;;12.44;100.00
47104;BME280;32853;52.164;5.400;2023-05-02T02:18:12;102044.84;;;12.66;100.00
47104;BME280;32853;52.164;5.400;2023-05-02T02:20:46;102048.22;;;12.69;100.00
47104;BME280;32853;52.164;5.400;2023-05-02T02:23:15;102059.47;;;12.73;100.00
47104;BME280;32853;52.164;5.400;2023-05-02T02:25:43;102059.09;;;12.57;100.00
47104;BME280;32853;52.164;5.400;2023-05-02T02:28:09;102065.34;;;12.51;100.00
47104;BME280;32853;52.164;5.400;2023-05-02T02:30:41;102063.72;;;12.78;100.00
47104;BME280;32853;52.164;5.400;2023-05-02T02:33:06;102055.72;;;12.52;100.00
47104;BME280;32853;52.164;5.400;2023-05-02T02:35:36;102053.94;;;12.54;100.00
47104;BME280;32853;52.164;5.400;2023-05-02T02:44:17;102078.75;;;12.42;100.00
47104;BME280;32853;52.164;5.400;2023-05-02T02:47:00;102065.34;;;12.53;100.00
47104;BME280;32853;52.164;5.400;2023-05-02T02:49:40;102048.78;;;12.49;100.00
47104;BME280;32853;52.164;5.400;2023-05-02T02:52:26;102078.31;;;12.58;100.00
47104;BME280;32853;52.164;5.400;2023-05-02T02:54:58;102094.00;;;12.59;100.00
47104;BME280;32853;52.164;5.400;2023-05-02T03:00:00;102007.25;;;12.03;100.00
47104;BME280;32853;52.164;5.400;2023-05-02T03:02:31;102094.00;;;12.59;100.00
47104;BME280;32853;52.164;5.400;2023-05-02T03:04:59;102093.78;;;12.36;100.00
47104;BME280;32853;52.164;5.400;2023-05-02T03:07:27;102085.47;;;12.53;100.00
47104;BME280;32853;52.164;5.400;2023-05-02T03:09:52;102110.31;;;12.70;100.00
47104;BME280;32853;52.164;5.400;2023-05-02T03:12:18;102073.44;;;12.44;100.00
47104;BME280;32853;52.164;5.400;2023-05-02T03:14:43;102116.31;;;12.75;100.00
47104;BME280;32853;52.164;5.400;2023-05-02T03:17:09;102101.78;;;12.62;100.00
47104;BME280;32853;52.164;5.400;2023-05-02T03:19:34;102121.47;;;12.78;100.00
47104;BME280;32853;52.164;5.400;2023-05-02T03:22:00;102066.09;;;12.57;100.00
47104;BME280;32853;52.164;5.400;2023-05-02T03:24:26;102076.97;;;12.43;100.00
47104;BME280;32853;52.164;5.400;2023-05-02T03:26:55;102077.53;;;12.54;100.00
47104;BME280;32853;52.164;5.400;2023-05-02T03:29:21;102098.66;;;12.49;100.00
47104;BME280;32853;52.164;5.400;2023-05-02T03:31:46;102118.91;;;12.44;100.00
47104;BME280;32853;52.164;5.400;2023-05-02T03:34:12;102101.56;;;12.39;100.00
47104;BME280;32853;52.164;5.400;2023-05-02T03:36:37;102096.69;;;12.25;100.00
47104;BME280;32853;52.164;5.400;2023-05-02T03:39:03;102133.81;;;12.44;100.00
47104;BME280;32853;52.164;5.400;2023-05-02T03:41:28;102143.50;;;12.40;100.00
47104;BME280;32853;52.164;5.400;2023-05-02T03:43:53;102150.84;;;12.60;100.00
47104;BME280;32853;52.164;5.400;2023-05-02T03:46:19;102158.59;;;12.65;100.00
47104;BME280;32853;52.164;5.400;2023-05-02T03:48:44;102101.50;;;12.09;100.00
47104;BME280;32853;52.164;5.400;2023-05-02T03:51:10;102135.66;;;12.39;100.00
47104;BME280;32853;52.164;5.400;2023-05-02T03:53:38;102148.72;;;12.42;100.00
47104;BME280;32853;52.164;5.400;2023-05-02T03:56:03;102133.25;;;11.97;100.00
47104;BME280;32853;52.164;5.400;2023-05-02T03:58:29;102152.63;;;12.26;100.00
47104;BME280;32853;52.164;5.400;2023-05-02T04:00:55;102099.09;;;11.63;100.00
47104;BME280;32853;52.164;5.400;2023-05-02T04:03:21;102113.38;;;11.88;100.00
47104;BME280;32853;52.164;5.400;2023-05-02T04:05:47;102112.00;;;11.72;100.00
47104;BME280;32853;52.164;5.400;2023-05-02T04:08:12;102167.38;;;12.31;100.00
47104;BME280;32853;52.164;5.400;2023-05-02T04:10:38;102160.34;;;11.98;100.00
47104;BME280;32853;52.164;5.400;2023-05-02T04:13:03;102169.22;;;12.26;100.00
47104;BME280;32853;52.164;5.400;2023-05-02T04:15:30;102174.66;;;12.18;100.00
47104;BME280;32853;52.164;5.400;2023-05-02T04:17:59;102177.41;;;12.14;100.00
47104;BME280;32853;52.164;5.400;2023-05-02T04:20:24;102167.06;;;11.71;100.00
47104;BME280;32853;52.164;5.400;2023-05-02T04:22:50;102152.75;;;11.87;100.00
47104;BME280;32853;52.164;5.400;2023-05-02T04:25:15;102184.63;;;11.67;100.00
47104;BME280;32853;52.164;5.400;2023-05-02T04:27:55;102137.06;;;11.47;100.00
47104;BME280;32853;52.164;5.400;2023-05-02T04:30:26;102148.97;;;11.60;100.00
47104;BME280;32853;52.164;5.400;2023-05-02T04:32:56;102203.59;;;11.78;100.00
47104;BME280;32853;52.164;5.400;2023-05-02T04:35:25;102159.53;;;11.17;100.00
47104;BME280;32853;52.164;5.400;2023-05-02T04:37:51;102216.03;;;11.28;100.00
47104;BME280;32853;52.164;5.400;2023-05-02T04:40:21;102220.34;;;11.71;100.00
47104;BME280;32853;52.164;5.400;2023-05-02T04:42:54;102226.88;;;11.52;100.00
47104;BME280;32853;52.164;5.400;2023-05-02T04:45:34;102199.38;;;11.32;100.00
47104;BME280;32853;52.164;5.400;2023-05-02T04:48:09;102232.84;;;11.17;100.00
47104;BME280;32853;52.164;5.400;2023-05-02T04:50:34;102247.44;;;11.28;100.00
47104;BME280;32853;52.164;5.400;2023-05-02T04:53:00;102251.59;;;10.95;100.00
47104;BME280;32853;52.164;5.400;2023-05-02T04:55:25;102245.94;;;11.17;100.00
47104;BME280;32853;52.164;5.400;2023-05-02T04:57:56;102243.78;;;11.37;100.00
47104;BME280;32853;52.164;5.400;2023-05-02T05:00:25;102241.03;;;11.45;100.00
47104;BME280;32853;52.164;5.400;2023-05-02T05:02:52;102257.66;;;11.42;100.00
47104;BME280;32853;52.164;5.400;2023-05-02T05:05:25;102211.78;;;11.23;100.00
47104;BME280;32853;52.164;5.400;2023-05-02T05:08:06;102255.81;;;11.47;100.00
47104;BME280;32853;52.164;5.400;2023-05-02T05:10:31;102259.66;;;11.29;100.00
47104;BME280;32853;52.164;5.400;2023-05-02T05:12:57;102266.59;;;11.32;100.00
47104;BME280;32853;52.164;5.400;2023-05-02T05:15:22;102255.84;;;11.46;100.00
47104;BME280;32853;52.164;5.400;2023-05-02T05:17:50;102278.47;;;11.91;100.00
47104;BME280;32853;52.164;5.400;2023-05-02T05:20:15;102285.22;;;11.60;100.00
47104;BME280;32853;52.164;5.400;2023-05-02T05:22:41;102270.19;;;11.26;100.00
47104;BME280;32853;52.164;5.400;2023-05-02T05:25:08;102242.59;;;11.10;100.00
47104;BME280;32853;52.164;5.400;2023-05-02T05:27:34;102238.38;;;11.03;100.00
47104;BME280;32853;52.164;5.400;2023-05-02T05:30:05;102210.72;;;10.90;100.00
47104;BME280;32853;52.164;5.400;2023-05-02T05:32:42;102294.16;;;11.05;100.00
47104;BME280;32853;52.164;5.400;2023-05-02T05:35:08;102299.53;;;10.99;100.00
47104;BME280;32853;52.164;5.400;2023-05-02T05:37:33;102261.25;;;10.44;100.00
47104;BME280;32853;52.164;5.400;2023-05-02T05:40:01;102300.22;;;10.59;100.00
47104;BME280;32853;52.164;5.400;2023-05-02T05:42:27;102276.81;;;10.50;100.00
47104;BME280;32853;52.164;5.400;2023-05-02T05:44:52;102316.84;;;10.57;100.00
47104;BME280;32853;52.164;5.400;2023-05-02T05:47:20;102278.66;;;10.45;100.00
47104;BME280;32853;52.164;5.400;2023-05-02T05:49:51;102318.16;;;10.81;100.00
47104;BME280;32853;52.164;5.400;2023-05-02T05:52:25;102324.56;;;10.64;100.00
47104;BME280;32853;52.164;5.400;2023-05-02T05:54:54;102336.56;;;10.77;100.00
47104;BME280;32853;52.164;5.400;2023-05-02T05:57:20;102344.22;;;10.88;100.00
47104;BME280;32853;52.164;5.400;2023-05-02T05:59:49;102338.16;;;10.85;100.00
47104;BME280;32853;52.164;5.400;2023-05-02T06:02:15;102334.81;;;10.76;100.00
47104;BME280;32853;52.164;5.400;2023-05-02T06:04:40;102356.44;;;10.88;100.00
47104;BME280;32853;52.164;5.400;2023-05-02T06:07:06;102353.50;;;11.06;100.00
47104;BME280;32853;52.164;5.400;2023-05-02T06:09:31;102348.75;;;11.26;100.00
47104;BME280;32853;52.164;5.400;2023-05-02T06:11:56;102309.59;;;10.72;100.00
47104;BME280;32853;52.164;5.400;2023-05-02T06:14:22;102360.69;;;11.41;100.00
47104;BME280;32853;52.164;5.400;2023-05-02T06:16:47;102362.66;;;11.30;100.00
47104;BME280;32853;52.164;5.400;2023-05-02T06:19:12;102355.97;;;11.60;100.00
47104;BME280;32853;52.164;5.400;2023-05-02T06:21:39;102368.31;;;11.55;100.00
47104;BME280;32853;52.164;5.400;2023-05-02T06:24:04;102349.34;;;11.42;100.00
47104;BME280;32853;52.164;5.400;2023-05-02T06:26:32;102370.19;;;11.93;100.00
47104;BME280;32853;52.164;5.400;2023-05-02T06:29:00;102358.72;;;11.99;100.00
47104;BME280;32853;52.164;5.400;2023-05-02T06:31:26;102368.78;;;11.75;100.00
47104;BME280;32853;52.164;5.400;2023-05-02T06:33:52;102372.50;;;11.65;100.00
47104;BME280;32853;52.164;5.400;2023-05-02T06:36:20;102346.25;;;11.22;100.00
47104;BME280;32853;52.164;5.400;2023-05-02T06:38:50;102401.94;;;11.78;100.00
47104;BME280;32853;52.164;5.400;2023-05-02T06:41:23;102398.63;;;11.68;100.00
47104;BME280;32853;52.164;5.400;2023-05-02T06:43:49;102387.56;;;11.54;100.00
47104;BME280;32853;52.164;5.400;2023-05-02T06:46:15;102361.03;;;11.24;100.00
47104;BME280;32853;52.164;5.400;2023-05-02T06:48:40;102386.75;;;11.49;100.00
47104;BME280;32853;52.164;5.400;2023-05-02T06:51:05;102433.84;;;12.00;100.00
47104;BME280;32853;52.164;5.400;2023-05-02T06:53:34;102386.50;;;11.64;100.00
47104;BME280;32853;52.164;5.400;2023-05-02T06:55:59;102423.94;;;11.69;100.00
47104;BME280;32853;52.164;5.400;2023-05-02T06:58:24;102426.41;;;11.29;100.00
47104;BME280;32853;52.164;5.400;2023-05-02T07:00:51;102430.94;;;11.19;100.00
47104;BME280;32853;52.164;5.400;2023-05-02T07:03:17;102440.72;;;11.59;100.00
47104;BME280;32853;52.164;5.400;2023-05-02T07:05:44;102429.81;;;11.34;100.00
47104;BME280;32853;52.164;5.400;2023-05-02T07:08:12;102462.88;;;11.41;100.00
47104;BME280;32853;52.164;5.400;2023-05-02T07:10:38;102450.03;;;11.74;100.00
47104;BME280;32853;52.164;5.400;2023-05-02T07:13:04;102444.91;;;11.69;100.00
47104;BME280;32853;52.164;5.400;2023-05-02T07:15:29;102413.44;;;10.69;100.00
47104;BME280;32853;52.164;5.400;2023-05-02T07:17:58;102472.31;;;10.99;100.00
47104;BME280;32853;52.164;5.400;2023-05-02T07:20:26;102464.66;;;10.87;100.00
47104;BME280;32853;52.164;5.400;2023-05-02T07:22:52;102449.47;;;11.09;100.00
47104;BME280;32853;52.164;5.400;2023-05-02T07:25:17;102474.53;;;11.23;100.00
47104;BME280;32853;52.164;5.400;2023-05-02T07:27:52;102453.63;;;11.22;100.00
47104;BME280;32853;52.164;5.400;2023-05-02T07:30:17;102491.50;;;11.53;100.00
47104;BME280;32853;52.164;5.400;2023-05-02T07:32:43;102483.31;;;11.70;100.00
47104;BME280;32853;52.164;5.400;2023-05-02T07:35:10;102434.22;;;11.33;100.00
47104;BME280;32853;52.164;5.400;2023-05-02T07:37:35;102434.78;;;11.00;100.00
47104;BME280;32853;52.164;5.400;2023-05-02T07:40:03;102459.09;;;11.57;100.00
47104;BME280;32853;52.164;5.400;2023-05-02T07:42:34;102494.78;;;11.64;100.00
47104;BME280;32853;52.164;5.400;2023-05-02T07:45:00;102451.09;;;11.63;100.00
47104;BME280;32853;52.164;5.400;2023-05-02T07:47:26;102495.28;;;11.88;100.00
47104;BME280;32853;52.164;5.400;2023-05-02T07:49:52;102494.34;;;11.90;100.00
47104;BME280;32853;52.164;5.400;2023-05-02T07:52:34;102498.63;;;11.95;99.67
47104;BME280;32853;52.164;5.400;2023-05-02T07:55:00;102461.16;;;11.89;96.33
47104;BME280;32853;52.164;5.400;2023-05-02T07:57:25;102504.81;;;12.35;95.05
47104;BME280;32853;52.164;5.400;2023-05-02T07:59:52;102463.91;;;11.82;95.32
47104;BME280;32853;52.164;5.400;2023-05-02T08:02:23;102469.44;;;11.65;95.83
47104;BME280;32853;52.164;5.400;2023-05-02T08:04:51;102513.75;;;11.79;95.98
47104;BME280;32853;52.164;5.400;2023-05-02T08:07:17;102489.19;;;11.84;93.67
47104;BME280;32853;52.164;5.400;2023-05-02T08:09:42;102514.16;;;11.56;95.13
47104;BME280;32853;52.164;5.400;2023-05-02T08:12:08;102490.00;;;11.37;96.42
47104;BME280;32853;52.164;5.400;2023-05-02T08:14:33;102530.16;;;11.38;95.52
47104;BME280;32853;52.164;5.400;2023-05-02T08:16:59;102520.94;;;11.68;94.44
47104;BME280;32853;52.164;5.400;2023-05-02T08:19:41;102476.06;;;11.37;91.46
47104;BME280;32853;52.164;5.400;2023-05-02T08:22:07;102511.78;;;11.42;89.88
47104;BME280;32853;52.164;5.400;2023-05-02T08:24:39;102541.63;;;11.32;88.11
47104;BME280;32853;52.164;5.400;2023-05-02T08:27:04;102490.66;;;10.96;87.18
47104;BME280;32853;52.164;5.400;2023-05-02T08:29:31;102544.75;;;11.52;82.26
47104;BME280;32853;52.164;5.400;2023-05-02T08:32:02;102551.41;;;11.21;82.43
47104;BME280;32853;52.164;5.400;2023-05-02T08:34:27;102551.88;;;11.46;80.01
47104;BME280;32853;52.164;5.400;2023-05-02T08:36:53;102546.97;;;11.80;79.52
47104;BME280;32853;52.164;5.400;2023-05-02T08:39:21;102564.78;;;11.58;76.22
47104;BME280;32853;52.164;5.400;2023-05-02T08:41:46;102545.88;;;11.38;76.23
47104;BME280;32853;52.164;5.400;2023-05-02T08:44:13;102535.97;;;11.56;74.76
47104;BME280;32853;52.164;5.400;2023-05-02T08:46:40;102536.06;;;12.03;72.25
47104;BME280;32853;52.164;5.400;2023-05-02T08:49:13;102559.47;;;12.13;71.58
47104;BME280;32853;52.164;5.400;2023-05-02T08:51:52;102554.66;;;12.35;70.42
47104;BME280;32853;52.164;5.400;2023-05-02T08:54:22;102568.50;;;12.43;69.41
47104;BME280;32853;52.164;5.400;2023-05-02T08:56:50;102523.84;;;12.02;67.31
47104;BME280;32853;52.164;5.400;2023-05-02T08:59:19;102568.31;;;12.53;66.79
47104;BME280;32853;52.164;5.400;2023-05-02T09:01:48;102531.94;;;12.34;64.86
47104;BME280;32853;52.164;5.400;2023-05-02T09:04:13;102567.09;;;12.69;64.15
47104;BME280;32853;52.164;5.400;2023-05-02T09:06:41;102566.00;;;12.79;63.91
47104;BME280;32853;52.164;5.400;2023-05-02T09:09:06;102533.47;;;12.46;64.17
47104;BME280;32853;52.164;5.400;2023-05-02T09:11:32;102549.00;;;12.95;62.11
47104;BME280;32853;52.164;5.400;2023-05-02T09:13:57;102553.78;;;12.78;60.22
47104;BME280;32853;52.164;5.400;2023-05-02T09:16:42;102593.69;;;12.94;58.65
47104;BME280;32853;52.164;5.400;2023-05-02T09:19:08;102576.72;;;12.25;57.82
47104;BME280;32853;52.164;5.400;2023-05-02T09:21:38;102537.63;;;12.56;58.21
47104;BME280;32853;52.164;5.400;2023-05-02T09:24:21;102589.81;;;13.12;56.86
47104;BME280;32853;52.164;5.400;2023-05-02T09:26:57;102541.97;;;12.57;55.47
47104;BME280;32853;52.164;5.400;2023-05-02T09:29:23;102591.25;;;12.85;55.03
47104;BME280;32853;52.164;5.400;2023-05-02T09:31:52;102589.34;;;13.33;54.13
47104;BME280;32853;52.164;5.400;2023-05-02T09:34:18;102562.56;;;13.16;54.51
47104;BME280;32853;52.164;5.400;2023-05-02T09:36:45;102602.28;;;13.02;52.78
47104;BME280;32853;52.164;5.400;2023-05-02T09:39:17;102563.00;;;12.97;52.90
47104;BME280;32853;52.164;5.400;2023-05-02T09:41:44;102538.78;;;12.83;53.90
47104;BME280;32853;52.164;5.400;2023-05-02T09:44:17;102624.28;;;13.36;53.06
47104;BME280;32853;52.164;5.400;2023-05-02T09:47:02;102619.00;;;13.38;52.98
47104;BME280;32853;52.164;5.400;2023-05-02T09:49:45;102612.91;;;13.36;52.41
47104;BME280;32853;52.164;5.400;2023-05-02T09:52:15;102604.09;;;13.38;52.21
47104;BME280;32853;52.164;5.400;2023-05-02T09:54:43;102605.03;;;13.36;51.70
47104;BME280;32853;52.164;5.400;2023-05-02T09:57:10;102610.56;;;13.24;53.66
47104;BME280;32853;52.164;5.400;2023-05-02T09:59:57;102623.31;;;13.42;52.48
47104;BME280;32853;52.164;5.400;2023-05-02T10:02:24;102605.66;;;13.47;52.20
47104;BME280;32853;52.164;5.400;2023-05-02T10:04:52;102564.66;;;13.38;52.26
47104;BME280;32853;52.164;5.400;2023-05-02T10:07:21;102586.78;;;13.67;52.51
47104;BME280;32853;52.164;5.400;2023-05-02T10:09:51;102623.75;;;13.95;52.31
47104;BME280;32853;52.164;5.400;2023-05-02T10:12:20;102608.03;;;13.58;51.41
47104;BME280;32853;52.164;5.400;2023-05-02T10:14:56;102615.19;;;13.51;51.08
47104;BME280;32853;52.164;5.400;2023-05-02T10:17:38;102618.78;;;13.83;51.08
47104;BME280;32853;52.164;5.400;2023-05-02T10:20:09;102628.78;;;13.69;50.05
47104;BME280;32853;52.164;5.400;2023-05-02T10:22:35;102636.47;;;13.78;49.90
47104;BME280;32853;52.164;5.400;2023-05-02T10:25:14;102608.16;;;13.53;50.34
47104;BME280;32853;52.164;5.400;2023-05-02T10:27:46;102640.78;;;13.80;50.20
47104;BME280;32853;52.164;5.400;2023-05-02T10:30:12;102635.22;;;13.57;50.81
47104;BME280;32853;52.164;5.400;2023-05-02T10:32:38;102624.56;;;13.24;50.15
47104;BME280;32853;52.164;5.400;2023-05-02T10:35:14;102655.22;;;13.62;49.85
47104;BME280;32853;52.164;5.400;2023-05-02T10:37:40;102655.91;;;14.06;50.08
47104;BME280;32853;52.164;5.400;2023-05-02T10:40:10;102649.16;;;14.30;48.83
47104;BME280;32853;52.164;5.400;2023-05-02T10:42:41;102647.78;;;14.49;48.18
47104;BME280;32853;52.164;5.400;2023-05-02T10:45:42;102644.19;;;14.18;48.20
47104;BME280;32853;52.164;5.400;2023-05-02T10:48:22;102638.97;;;14.16;49.23
47104;BME280;32853;52.164;5.400;2023-05-02T10:50:51;102636.00;;;14.29;48.83
47104;BME280;32853;52.164;5.400;2023-05-02T10:53:44;102652.38;;;14.07;48.81
47104;BME280;32853;52.164;5.400;2023-05-02T10:56:16;102657.47;;;14.13;49.17
47104;BME280;32853;52.164;5.400;2023-05-02T10:58:43;102652.25;;;14.12;49.42
47104;BME280;32853;52.164;5.400;2023-05-02T11:01:32;102663.38;;;14.23;49.12
47104;BME280;32853;52.164;5.400;2023-05-02T11:04:06;102655.31;;;14.62;49.29
47104;BME280;32853;52.164;5.400;2023-05-02T11:06:35;102653.19;;;14.76;48.94
47104;BME280;32853;52.164;5.400;2023-05-02T11:11:46;102666.19;;;14.15;48.53
47104;BME280;32853;52.164;5.400;2023-05-02T11:15:01;102621.78;;;14.03;47.74
47104;BME280;32853;52.164;5.400;2023-05-02T11:24:45;102659.38;;;14.75;47.11
47104;BME280;32853;52.164;5.400;2023-05-02T11:30:03;102661.13;;;14.42;48.69
47104;BME280;32853;52.164;5.400;2023-05-02T11:37:41;102678.53;;;15.39;47.44
47104;BME280;32853;52.164;5.400;2023-05-02T11:40:12;102686.28;;;14.85;47.92
47104;BME280;32853;52.164;5.400;2023-05-02T11:42:37;102640.69;;;14.19;48.18
47104;BME280;32853;52.164;5.400;2023-05-02T11:45:03;102646.34;;;14.36;48.12
47104;BME280;32853;52.164;5.400;2023-05-02T11:47:31;102674.63;;;14.93;47.71
47104;BME280;32853;52.164;5.400;2023-05-02T11:49:57;102667.69;;;14.91;47.51
47104;BME280;32853;52.164;5.400;2023-05-02T11:52:24;102690.75;;;14.82;46.96
47104;BME280;32853;52.164;5.400;2023-05-02T11:54:54;102674.44;;;15.29;47.58
47104;BME280;32853;52.164;5.400;2023-05-02T11:57:21;102682.34;;;15.30;47.18
47104;BME280;32853;52.164;5.400;2023-05-02T11:59:53;102692.63;;;15.67;45.66
47104;BME280;32853;52.164;5.400;2023-05-02T12:02:35;102675.13;;;15.35;46.63
47104;BME280;32853;52.164;5.400;2023-05-02T12:05:03;102698.06;;;14.71;47.19
47104;BME280;32853;52.164;5.400;2023-05-02T12:10:01;102700.56;;;14.45;47.86
47104;BME280;32853;52.164;5.400;2023-05-02T12:12:35;102665.78;;;14.32;47.02
47104;BME280;32853;52.164;5.400;2023-05-02T12:15:06;102702.91;;;14.56;47.27
47104;BME280;32853;52.164;5.400;2023-05-02T12:17:33;102707.88;;;14.66;47.07
47104;BME280;32853;52.164;5.400;2023-05-02T12:20:02;102706.88;;;14.70;47.72
47104;BME280;32853;52.164;5.400;2023-05-02T12:22:36;102717.31;;;14.75;48.47
47104;BME280;32853;52.164;5.400;2023-05-02T12:25:03;102733.56;;;14.91;47.96
47104;BME280;32853;52.164;5.400;2023-05-02T12:27:32;102730.16;;;15.17;45.73
47104;BME280;32853;52.164;5.400;2023-05-02T12:29:58;102713.63;;;14.80;46.06
47104;BME280;32853;52.164;5.400;2023-05-02T12:32:32;102703.22;;;15.36;46.64
47104;BME280;32853;52.164;5.400;2023-05-02T12:34:59;102688.41;;;15.62;44.97
47104;BME280;32853;52.164;5.400;2023-05-02T12:37:25;102724.41;;;15.91;44.33
47104;BME280;32853;52.164;5.400;2023-05-02T12:39:51;102724.75;;;15.52;44.14
47104;BME280;32853;52.164;5.400;2023-05-02T12:42:24;102729.31;;;15.46;46.69
47104;BME280;32853;52.164;5.400;2023-05-02T12:44:50;102572.84;;;14.29;45.48
47104;BME280;32853;52.164;5.400;2023-05-02T12:47:17;102659.56;;;14.67;45.64
47104;BME280;32853;52.164;5.400;2023-05-02T12:49:56;102731.31;;;15.37;45.35
47104;BME280;32853;52.164;5.400;2023-05-02T12:52:49;102736.34;;;15.16;45.31
47104;BME280;32853;52.164;5.400;2023-05-02T12:55:23;102733.97;;;15.67;44.65
47104;BME280;32853;52.164;5.400;2023-05-02T12:57:50;102738.19;;;15.43;44.56
47104;BME280;32853;52.164;5.400;2023-05-02T13:00:21;102703.47;;;15.86;43.90
47104;BME280;32853;52.164;5.400;2023-05-02T13:02:48;102721.81;;;15.61;43.45
47104;BME280;32853;52.164;5.400;2023-05-02T13:05:14;102732.38;;;15.89;45.20
47104;BME280;32853;52.164;5.400;2023-05-02T13:07:40;102691.59;;;15.44;45.47
47104;BME280;32853;52.164;5.400;2023-05-02T13:10:05;102741.66;;;15.14;45.72
47104;BME280;32853;52.164;5.400;2023-05-02T13:12:31;102740.13;;;15.36;46.33
47104;BME280;32853;52.164;5.400;2023-05-02T13:14:56;102740.00;;;15.11;45.44
47104;BME280;32853;52.164;5.400;2023-05-02T13:17:22;102754.34;;;15.01;45.39
47104;BME280;32853;52.164;5.400;2023-05-02T13:19:47;102718.56;;;15.52;45.25
47104;BME280;32853;52.164;5.400;2023-05-02T13:22:13;102733.53;;;16.09;44.91
47104;BME280;32853;52.164;5.400;2023-05-02T13:24:38;102721.91;;;16.14;44.69
47104;BME280;32853;52.164;5.400;2023-05-02T13:27:04;102719.88;;;15.68;44.50
47104;BME280;32853;52.164;5.400;2023-05-02T13:29:29;102707.09;;;15.25;44.82
47104;BME280;32853;52.164;5.400;2023-05-02T13:31:59;102711.88;;;15.42;45.16
47104;BME280;32853;52.164;5.400;2023-05-02T13:34:25;102694.59;;;15.89;44.91
47104;BME280;32853;52.164;5.400;2023-05-02T13:36:50;102733.63;;;15.48;45.41